Terminal Aerodrome Forecast
Issued by NWS Cleveland, OH

Home | Current Version | Previous Version | Graphics & Text | Print | Product List | Glossary On
Versions: 1 2 3 4 5 6 7 8 9 10 11 12 13 14 15 16 17 18 19
000
FTUS41 KCLE 231500 AAA
TAFCAK
TAF AMD
KCAK 231502Z 2315/2412 28008KT P6SM SCT040 BKN200
     FM231700 32006KT P6SM SCT015 OVC040
      TEMPO 2317/2319 4SM -SHRA BR OVC015
     FM231900 34010KT P6SM OVC015
     FM232200 34010KT P6SM BKN025
     FM240500 01006KT P6SM SCT030=

USA.gov is the U.S. government's official web portal to all federal, state and local government web resources and services.